sensor_id;sensor_type;location;lat;lon;timestamp;temperature;humidity
52285;DHT22;38238;53.304;6.606;2022-10-31T00:02:08;12.90;99.90
52285;DHT22;38238;53.304;6.606;2022-10-31T00:04:33;12.90;99.90
52285;DHT22;38238;53.304;6.606;2022-10-31T00:06:59;12.80;99.90
52285;DHT22;38238;53.304;6.606;2022-10-31T00:09:25;12.80;99.90
52285;DHT22;38238;53.304;6.606;2022-10-31T00:11:50;12.80;99.90
52285;DHT22;38238;53.304;6.606;2022-10-31T00:14:16;12.70;99.90
52285;DHT22;38238;53.304;6.606;2022-10-31T00:16:42;12.70;99.90
52285;DHT22;38238;53.304;6.606;2022-10-31T00:19:08;12.70;99.90
52285;DHT22;38238;53.304;6.606;2022-10-31T00:21:34;12.70;99.90
52285;DHT22;38238;53.304;6.606;2022-10-31T00:24:00;12.60;99.90
52285;DHT22;38238;53.304;6.606;2022-10-31T00:26:28;12.60;99.90
52285;DHT22;38238;53.304;6.606;2022-10-31T00:28:54;12.60;99.90
52285;DHT22;38238;53.304;6.606;2022-10-31T00:31:19;12.60;99.90
52285;DHT22;38238;53.304;6.606;2022-10-31T00:33:45;12.60;99.90
52285;DHT22;38238;53.304;6.606;2022-10-31T00:36:16;12.60;99.90
52285;DHT22;38238;53.304;6.606;2022-10-31T00:38:43;12.60;99.90
52285;DHT22;38238;53.304;6.606;2022-10-31T00:41:10;12.60;99.90
52285;DHT22;38238;53.304;6.606;2022-10-31T00:43:36;12.60;99.90
52285;DHT22;38238;53.304;6.606;2022-10-31T00:46:02;12.50;99.90
52285;DHT22;38238;53.304;6.606;2022-10-31T00:48:28;12.50;99.90
52285;DHT22;38238;53.304;6.606;2022-10-31T00:50:54;12.50;99.90
52285;DHT22;38238;53.304;6.606;2022-10-31T00:53:20;12.50;99.90
52285;DHT22;38238;53.304;6.606;2022-10-31T00:55:45;12.50;99.90
52285;DHT22;38238;53.304;6.606;2022-10-31T00:58:11;12.50;99.90
52285;DHT22;38238;53.304;6.606;2022-10-31T01:00:37;12.50;99.90
52285;DHT22;38238;53.304;6.606;2022-10-31T01:03:02;12.50;99.90
52285;DHT22;38238;53.304;6.606;2022-10-31T01:05:28;12.50;99.90
52285;DHT22;38238;53.304;6.606;2022-10-31T01:07:54;12.50;99.90
52285;DHT22;38238;53.304;6.606;2022-10-31T01:10:19;12.50;99.90
52285;DHT22;38238;53.304;6.606;2022-10-31T01:12:47;12.50;99.90
52285;DHT22;38238;53.304;6.606;2022-10-31T01:15:15;12.50;99.90
52285;DHT22;38238;53.304;6.606;2022-10-31T01:17:41;12.50;99.90
52285;DHT22;38238;53.304;6.606;2022-10-31T01:20:09;12.40;99.90
52285;DHT22;38238;53.304;6.606;2022-10-31T01:22:35;12.40;99.90
52285;DHT22;38238;53.304;6.606;2022-10-31T01:25:01;12.40;99.90
52285;DHT22;38238;53.304;6.606;2022-10-31T01:27:27;12.40;99.90
52285;DHT22;38238;53.304;6.606;2022-10-31T01:29:53;12.40;99.90
52285;DHT22;38238;53.304;6.606;2022-10-31T01:32:18;12.40;99.90
52285;DHT22;38238;53.304;6.606;2022-10-31T01:34:44;12.40;99.90
52285;DHT22;38238;53.304;6.606;2022-10-31T01:37:10;12.40;99.90
52285;DHT22;38238;53.304;6.606;2022-10-31T01:39:35;12.40;99.90
52285;DHT22;38238;53.304;6.606;2022-10-31T01:42:01;12.30;99.90
52285;DHT22;38238;53.304;6.606;2022-10-31T01:47:08;12.30;99.90
52285;DHT22;38238;53.304;6.606;2022-10-31T01:49:54;12.30;99.90
52285;DHT22;38238;53.304;6.606;2022-10-31T01:52:25;12.30;99.90
52285;DHT22;38238;53.304;6.606;2022-10-31T01:55:13;12.20;99.90
52285;DHT22;38238;53.304;6.606;2022-10-31T01:57:44;12.20;99.90
52285;DHT22;38238;53.304;6.606;2022-10-31T02:00:11;12.20;99.90
52285;DHT22;38238;53.304;6.606;2022-10-31T02:02:37;12.20;99.90
52285;DHT22;38238;53.304;6.606;2022-10-31T02:05:08;12.20;99.90
52285;DHT22;38238;53.304;6.606;2022-10-31T02:10:06;12.20;99.90
52285;DHT22;38238;53.304;6.606;2022-10-31T02:12:33;12.20;99.90
52285;DHT22;38238;53.304;6.606;2022-10-31T02:15:01;12.10;99.90
52285;DHT22;38238;53.304;6.606;2022-10-31T02:17:29;12.10;99.90
52285;DHT22;38238;53.304;6.606;2022-10-31T02:39:21;12.00;99.90
52285;DHT22;38238;53.304;6.606;2022-10-31T02:41:50;12.00;99.90
52285;DHT22;38238;53.304;6.606;2022-10-31T02:47:21;12.00;99.90
52285;DHT22;38238;53.304;6.606;2022-10-31T02:50:02;12.00;99.90
52285;DHT22;38238;53.304;6.606;2022-10-31T02:52:31;12.00;99.90
52285;DHT22;38238;53.304;6.606;2022-10-31T02:54:58;11.90;99.90
52285;DHT22;38238;53.304;6.606;2022-10-31T02:57:26;11.90;99.90
52285;DHT22;38238;53.304;6.606;2022-10-31T02:59:59;11.90;99.90
52285;DHT22;38238;53.304;6.606;2022-10-31T03:08:31;11.80;99.90
52285;DHT22;38238;53.304;6.606;2022-10-31T03:11:02;11.80;99.90
52285;DHT22;38238;53.304;6.606;2022-10-31T03:13:51;11.70;99.90
52285;DHT22;38238;53.304;6.606;2022-10-31T03:19:29;11.70;99.90
52285;DHT22;38238;53.304;6.606;2022-10-31T03:22:09;11.70;99.90
52285;DHT22;38238;53.304;6.606;2022-10-31T03:24:38;11.60;99.90
52285;DHT22;38238;53.304;6.606;2022-10-31T03:27:07;11.60;99.90
52285;DHT22;38238;53.304;6.606;2022-10-31T03:29:36;11.60;99.90
52285;DHT22;38238;53.304;6.606;2022-10-31T03:32:16;11.60;99.90
52285;DHT22;38238;53.304;6.606;2022-10-31T03:34:44;11.60;99.90
52285;DHT22;38238;53.304;6.606;2022-10-31T03:37:14;11.60;99.90
52285;DHT22;38238;53.304;6.606;2022-10-31T03:39:43;11.60;99.90
52285;DHT22;38238;53.304;6.606;2022-10-31T03:42:16;11.60;99.90
52285;DHT22;38238;53.304;6.606;2022-10-31T03:44:49;11.60;99.90
52285;DHT22;38238;53.304;6.606;2022-10-31T03:47:17;11.50;99.90
52285;DHT22;38238;53.304;6.606;2022-10-31T03:49:43;11.50;99.90
52285;DHT22;38238;53.304;6.606;2022-10-31T03:55:35;11.50;99.90
52285;DHT22;38238;53.304;6.606;2022-10-31T03:58:25;11.40;99.90
52285;DHT22;38238;53.304;6.606;2022-10-31T04:00:54;11.40;99.90
52285;DHT22;38238;53.304;6.606;2022-10-31T04:03:27;11.40;99.90
52285;DHT22;38238;53.304;6.606;2022-10-31T04:05:56;11.30;99.90
52285;DHT22;38238;53.304;6.606;2022-10-31T04:08:29;11.40;99.90
52285;DHT22;38238;53.304;6.606;2022-10-31T04:10:58;11.40;99.90
52285;DHT22;38238;53.304;6.606;2022-10-31T04:13:30;11.30;99.90
52285;DHT22;38238;53.304;6.606;2022-10-31T04:15:57;11.30;99.90
52285;DHT22;38238;53.304;6.606;2022-10-31T04:18:24;11.00;99.90
52285;DHT22;38238;53.304;6.606;2022-10-31T04:21:08;11.30;99.90
52285;DHT22;38238;53.304;6.606;2022-10-31T04:23:35;11.30;99.90
52285;DHT22;38238;53.304;6.606;2022-10-31T04:26:01;11.30;99.90
52285;DHT22;38238;53.304;6.606;2022-10-31T04:28:27;11.30;99.90
52285;DHT22;38238;53.304;6.606;2022-10-31T04:30:52;11.30;99.90
52285;DHT22;38238;53.304;6.606;2022-10-31T04:33:18;11.30;99.90
52285;DHT22;38238;53.304;6.606;2022-10-31T04:35:44;11.30;99.90
52285;DHT22;38238;53.304;6.606;2022-10-31T04:38:10;11.20;99.90
52285;DHT22;38238;53.304;6.606;2022-10-31T04:40:36;11.20;99.90
52285;DHT22;38238;53.304;6.606;2022-10-31T04:43:01;11.20;99.90
52285;DHT22;38238;53.304;6.606;2022-10-31T04:45:30;11.20;99.90
52285;DHT22;38238;53.304;6.606;2022-10-31T04:47:55;11.20;99.90
52285;DHT22;38238;53.304;6.606;2022-10-31T04:50:21;11.10;99.90
52285;DHT22;38238;53.304;6.606;2022-10-31T04:52:47;11.30;99.90
52285;DHT22;38238;53.304;6.606;2022-10-31T04:55:13;11.10;99.90
52285;DHT22;38238;53.304;6.606;2022-10-31T04:57:44;11.10;99.90
52285;DHT22;38238;53.304;6.606;2022-10-31T05:00:11;11.10;99.90
52285;DHT22;38238;53.304;6.606;2022-10-31T05:02:44;11.10;99.90
52285;DHT22;38238;53.304;6.606;2022-10-31T05:05:11;11.10;99.90
52285;DHT22;38238;53.304;6.606;2022-10-31T05:07:47;11.10;99.90
52285;DHT22;38238;53.304;6.606;2022-10-31T05:10:18;11.00;99.90
52285;DHT22;38238;53.304;6.606;2022-10-31T05:12:49;11.00;99.90
52285;DHT22;38238;53.304;6.606;2022-10-31T05:15:16;11.00;99.90
52285;DHT22;38238;53.304;6.606;2022-10-31T05:17:43;11.00;99.90
52285;DHT22;38238;53.304;6.606;2022-10-31T05:20:10;11.00;99.90
52285;DHT22;38238;53.304;6.606;2022-10-31T05:22:36;11.00;99.90
52285;DHT22;38238;53.304;6.606;2022-10-31T05:25:02;11.00;99.90
52285;DHT22;38238;53.304;6.606;2022-10-31T05:27:28;11.00;99.90
52285;DHT22;38238;53.304;6.606;2022-10-31T05:29:53;11.00;99.90
52285;DHT22;38238;53.304;6.606;2022-10-31T05:32:19;11.00;99.90
52285;DHT22;38238;53.304;6.606;2022-10-31T05:34:45;11.00;99.90
52285;DHT22;38238;53.304;6.606;2022-10-31T05:37:10;10.90;99.90
52285;DHT22;38238;53.304;6.606;2022-10-31T05:39:37;10.90;99.90
52285;DHT22;38238;53.304;6.606;2022-10-31T05:42:02;10.90;99.90
52285;DHT22;38238;53.304;6.606;2022-10-31T05:44:29;10.80;99.90
52285;DHT22;38238;53.304;6.606;2022-10-31T05:46:54;10.80;99.90
52285;DHT22;38238;53.304;6.606;2022-10-31T05:49:20;10.80;99.90
52285;DHT22;38238;53.304;6.606;2022-10-31T05:51:46;10.80;99.90
52285;DHT22;38238;53.304;6.606;2022-10-31T05:54:11;10.80;99.90
52285;DHT22;38238;53.304;6.606;2022-10-31T05:56:37;10.70;99.90
52285;DHT22;38238;53.304;6.606;2022-10-31T05:59:02;10.90;99.90
52285;DHT22;38238;53.304;6.606;2022-10-31T06:01:28;10.70;99.90
52285;DHT22;38238;53.304;6.606;2022-10-31T06:03:54;10.70;99.90
52285;DHT22;38238;53.304;6.606;2022-10-31T06:06:19;10.70;99.90
52285;DHT22;38238;53.304;6.606;2022-10-31T06:08:45;10.60;99.90
52285;DHT22;38238;53.304;6.606;2022-10-31T06:11:11;10.60;99.90
52285;DHT22;38238;53.304;6.606;2022-10-31T06:13:36;10.70;99.90
52285;DHT22;38238;53.304;6.606;2022-10-31T06:16:02;10.70;99.90
52285;DHT22;38238;53.304;6.606;2022-10-31T06:18:28;10.70;99.90
52285;DHT22;38238;53.304;6.606;2022-10-31T06:20:53;10.70;99.90
52285;DHT22;38238;53.304;6.606;2022-10-31T06:23:19;10.70;99.90
52285;DHT22;38238;53.304;6.606;2022-10-31T06:25:49;10.70;99.90
52285;DHT22;38238;53.304;6.606;2022-10-31T06:28:15;10.70;99.90
52285;DHT22;38238;53.304;6.606;2022-10-31T06:30:40;10.70;99.90
52285;DHT22;38238;53.304;6.606;2022-10-31T06:33:06;10.70;99.90
52285;DHT22;38238;53.304;6.606;2022-10-31T06:35:32;10.70;99.90
52285;DHT22;38238;53.304;6.606;2022-10-31T06:37:58;10.70;99.90
52285;DHT22;38238;53.304;6.606;2022-10-31T06:40:24;10.70;99.90
52285;DHT22;38238;53.304;6.606;2022-10-31T06:43:00;10.70;99.90
52285;DHT22;38238;53.304;6.606;2022-10-31T06:45:29;10.70;99.90
52285;DHT22;38238;53.304;6.606;2022-10-31T06:47:55;10.70;99.90
52285;DHT22;38238;53.304;6.606;2022-10-31T06:50:22;10.70;99.90
52285;DHT22;38238;53.304;6.606;2022-10-31T06:52:52;10.70;99.90
52285;DHT22;38238;53.304;6.606;2022-10-31T06:55:19;10.70;99.90
52285;DHT22;38238;53.304;6.606;2022-10-31T06:57:52;10.70;99.90
52285;DHT22;38238;53.304;6.606;2022-10-31T07:00:19;10.70;99.90
52285;DHT22;38238;53.304;6.606;2022-10-31T07:03:02;10.70;99.90
52285;DHT22;38238;53.304;6.606;2022-10-31T07:05:29;10.70;99.90
52285;DHT22;38238;53.304;6.606;2022-10-31T07:07:56;10.70;99.90
52285;DHT22;38238;53.304;6.606;2022-10-31T07:10:23;10.60;99.90
52285;DHT22;38238;53.304;6.606;2022-10-31T07:12:54;10.60;99.90
52285;DHT22;38238;53.304;6.606;2022-10-31T07:15:20;10.60;99.90
52285;DHT22;38238;53.304;6.606;2022-10-31T07:17:46;10.60;99.90
52285;DHT22;38238;53.304;6.606;2022-10-31T07:20:11;10.60;99.90
52285;DHT22;38238;53.304;6.606;2022-10-31T07:22:37;10.60;99.90
52285;DHT22;38238;53.304;6.606;2022-10-31T07:25:04;10.60;99.90
52285;DHT22;38238;53.304;6.606;2022-10-31T07:27:38;10.60;99.90
52285;DHT22;38238;53.304;6.606;2022-10-31T07:30:05;10.60;99.90
52285;DHT22;38238;53.304;6.606;2022-10-31T07:32:58;10.60;99.90
52285;DHT22;38238;53.304;6.606;2022-10-31T07:35:28;10.70;99.90
52285;DHT22;38238;53.304;6.606;2022-10-31T07:37:54;10.60;99.90
52285;DHT22;38238;53.304;6.606;2022-10-31T07:40:21;10.60;99.90
52285;DHT22;38238;53.304;6.606;2022-10-31T07:42:49;10.60;99.90
52285;DHT22;38238;53.304;6.606;2022-10-31T07:45:20;10.60;99.90
52285;DHT22;38238;53.304;6.606;2022-10-31T07:47:53;10.50;99.90
52285;DHT22;38238;53.304;6.606;2022-10-31T07:50:30;10.70;99.90
52285;DHT22;38238;53.304;6.606;2022-10-31T07:53:12;10.60;99.90
52285;DHT22;38238;53.304;6.606;2022-10-31T07:55:38;10.60;99.90
52285;DHT22;38238;53.304;6.606;2022-10-31T07:58:15;10.60;99.90
52285;DHT22;38238;53.304;6.606;2022-10-31T08:00:43;10.60;99.90
52285;DHT22;38238;53.304;6.606;2022-10-31T08:03:11;10.60;99.90
52285;DHT22;38238;53.304;6.606;2022-10-31T08:05:38;10.60;99.90
52285;DHT22;38238;53.304;6.606;2022-10-31T08:08:05;10.70;99.90
52285;DHT22;38238;53.304;6.606;2022-10-31T08:10:32;10.80;99.90
52285;DHT22;38238;53.304;6.606;2022-10-31T08:13:04;10.90;99.90
52285;DHT22;38238;53.304;6.606;2022-10-31T08:15:30;11.00;99.90
52285;DHT22;38238;53.304;6.606;2022-10-31T08:17:56;11.00;99.90
52285;DHT22;38238;53.304;6.606;2022-10-31T08:20:22;11.10;99.90
52285;DHT22;38238;53.304;6.606;2022-10-31T08:23:03;11.10;99.90
52285;DHT22;38238;53.304;6.606;2022-10-31T08:25:31;11.20;99.90
52285;DHT22;38238;53.304;6.606;2022-10-31T08:27:57;11.30;99.90
52285;DHT22;38238;53.304;6.606;2022-10-31T08:30:26;11.30;99.90
52285;DHT22;38238;53.304;6.606;2022-10-31T08:33:17;11.50;99.90
52285;DHT22;38238;53.304;6.606;2022-10-31T08:35:44;11.50;99.90
52285;DHT22;38238;53.304;6.606;2022-10-31T08:38:11;11.50;99.90
52285;DHT22;38238;53.304;6.606;2022-10-31T08:40:38;11.50;99.90
52285;DHT22;38238;53.304;6.606;2022-10-31T08:45:35;11.60;99.90
52285;DHT22;38238;53.304;6.606;2022-10-31T08:48:06;11.60;99.90
52285;DHT22;38238;53.304;6.606;2022-10-31T08:50:34;11.70;99.90
52285;DHT22;38238;53.304;6.606;2022-10-31T08:53:09;11.80;99.90
52285;DHT22;38238;53.304;6.606;2022-10-31T08:55:37;11.80;99.90
52285;DHT22;38238;53.304;6.606;2022-10-31T08:58:05;11.90;99.90
52285;DHT22;38238;53.304;6.606;2022-10-31T09:00:31;11.90;99.90
52285;DHT22;38238;53.304;6.606;2022-10-31T09:02:58;11.90;99.90
52285;DHT22;38238;53.304;6.606;2022-10-31T09:05:25;12.00;99.90
52285;DHT22;38238;53.304;6.606;2022-10-31T09:07:54;12.00;99.90
52285;DHT22;38238;53.304;6.606;2022-10-31T09:10:20;12.10;99.90
52285;DHT22;38238;53.304;6.606;2022-10-31T09:12:46;12.10;99.90
52285;DHT22;38238;53.304;6.606;2022-10-31T09:15:12;12.20;99.90
52285;DHT22;38238;53.304;6.606;2022-10-31T09:17:37;12.30;99.90
52285;DHT22;38238;53.304;6.606;2022-10-31T09:20:03;12.40;99.90
52285;DHT22;38238;53.304;6.606;2022-10-31T09:22:32;12.40;99.90
52285;DHT22;38238;53.304;6.606;2022-10-31T09:24:58;12.60;99.90
52285;DHT22;38238;53.304;6.606;2022-10-31T09:27:23;12.60;99.90
52285;DHT22;38238;53.304;6.606;2022-10-31T09:29:49;12.70;99.90
52285;DHT22;38238;53.304;6.606;2022-10-31T09:32:15;12.70;99.90
52285;DHT22;38238;53.304;6.606;2022-10-31T09:34:40;12.80;99.90
52285;DHT22;38238;53.304;6.606;2022-10-31T09:37:06;12.90;99.90
52285;DHT22;38238;53.304;6.606;2022-10-31T09:39:32;12.90;99.90
52285;DHT22;38238;53.304;6.606;2022-10-31T09:50:56;13.50;99.90
52285;DHT22;38238;53.304;6.606;2022-10-31T09:53:46;14.30;99.90
52285;DHT22;38238;53.304;6.606;2022-10-31T09:56:16;15.10;99.90
52285;DHT22;38238;53.304;6.606;2022-10-31T09:58:52;16.00;99.90
52285;DHT22;38238;53.304;6.606;2022-10-31T10:09:49;18.40;99.90
52285;DHT22;38238;53.304;6.606;2022-10-31T10:26:22;19.40;99.90
52285;DHT22;38238;53.304;6.606;2022-10-31T10:31:46;19.60;99.90
52285;DHT22;38238;53.304;6.606;2022-10-31T10:37:04;19.90;99.90
52285;DHT22;38238;53.304;6.606;2022-10-31T10:39:39;19.90;99.90
52285;DHT22;38238;53.304;6.606;2022-10-31T10:42:13;20.00;99.90
52285;DHT22;38238;53.304;6.606;2022-10-31T10:44:58;20.20;99.90
52285;DHT22;38238;53.304;6.606;2022-10-31T10:47:46;20.20;99.90
52285;DHT22;38238;53.304;6.606;2022-10-31T10:52:48;19.60;99.90
52285;DHT22;38238;53.304;6.606;2022-10-31T10:55:35;19.30;99.90
52285;DHT22;38238;53.304;6.606;2022-10-31T10:58:08;19.10;99.90
52285;DHT22;38238;53.304;6.606;2022-10-31T11:00:39;18.90;99.90
52285;DHT22;38238;53.304;6.606;2022-10-31T11:03:06;18.90;99.90
52285;DHT22;38238;53.304;6.606;2022-10-31T11:05:51;18.70;99.90
52285;DHT22;38238;53.304;6.606;2022-10-31T11:08:43;18.60;99.90
52285;DHT22;38238;53.304;6.606;2022-10-31T11:13:41;18.50;99.90
52285;DHT22;38238;53.304;6.606;2022-10-31T11:16:35;18.40;99.90
52285;DHT22;38238;53.304;6.606;2022-10-31T11:19:17;18.50;99.90
52285;DHT22;38238;53.304;6.606;2022-10-31T11:21:44;17.70;99.90
52285;DHT22;38238;53.304;6.606;2022-10-31T11:26:37;18.50;99.90
52285;DHT22;38238;53.304;6.606;2022-10-31T11:29:05;18.60;99.90
52285;DHT22;38238;53.304;6.606;2022-10-31T11:31:32;18.60;99.90
52285;DHT22;38238;53.304;6.606;2022-10-31T11:34:03;18.50;99.90
52285;DHT22;38238;53.304;6.606;2022-10-31T11:36:32;18.50;99.90
52285;DHT22;38238;53.304;6.606;2022-10-31T11:38:59;18.50;99.90
52285;DHT22;38238;53.304;6.606;2022-10-31T11:41:34;18.50;99.90
52285;DHT22;38238;53.304;6.606;2022-10-31T11:44:27;18.60;99.90
52285;DHT22;38238;53.304;6.606;2022-10-31T11:46:54;18.50;99.90
52285;DHT22;38238;53.304;6.606;2022-10-31T11:49:42;18.20;99.90
52285;DHT22;38238;53.304;6.606;2022-10-31T11:52:41;17.80;99.90
52285;DHT22;38238;53.304;6.606;2022-10-31T11:57:47;17.10;99.90
52285;DHT22;38238;53.304;6.606;2022-10-31T12:00:33;16.80;99.90
52285;DHT22;38238;53.304;6.606;2022-10-31T12:05:51;16.80;99.90
52285;DHT22;38238;53.304;6.606;2022-10-31T12:08:19;17.00;99.90
52285;DHT22;38238;53.304;6.606;2022-10-31T12:16:34;17.50;99.90
52285;DHT22;38238;53.304;6.606;2022-10-31T12:19:05;17.40;99.90
52285;DHT22;38238;53.304;6.606;2022-10-31T12:21:58;17.40;99.90
52285;DHT22;38238;53.304;6.606;2022-10-31T12:27:17;16.80;99.90
52285;DHT22;38238;53.304;6.606;2022-10-31T12:32:41;16.50;99.90
52285;DHT22;38238;53.304;6.606;2022-10-31T12:35:57;16.50;99.90
52285;DHT22;38238;53.304;6.606;2022-10-31T12:41:51;16.70;99.90
52285;DHT22;38238;53.304;6.606;2022-10-31T12:44:44;16.80;99.90
52285;DHT22;38238;53.304;6.606;2022-10-31T12:53:15;16.50;99.90
52285;DHT22;38238;53.304;6.606;2022-10-31T12:58:52;16.40;99.90
52285;DHT22;38238;53.304;6.606;2022-10-31T13:01:38;16.30;99.90
52285;DHT22;38238;53.304;6.606;2022-10-31T13:06:53;16.30;99.90
52285;DHT22;38238;53.304;6.606;2022-10-31T13:09:26;16.30;99.90
52285;DHT22;38238;53.304;6.606;2022-10-31T13:12:07;16.20;99.90
52285;DHT22;38238;53.304;6.606;2022-10-31T13:14:39;16.20;99.90
52285;DHT22;38238;53.304;6.606;2022-10-31T13:17:21;16.30;99.90
52285;DHT22;38238;53.304;6.606;2022-10-31T13:19:49;16.20;99.90
52285;DHT22;38238;53.304;6.606;2022-10-31T13:22:23;16.20;99.90
52285;DHT22;38238;53.304;6.606;2022-10-31T13:27:30;16.20;99.90
52285;DHT22;38238;53.304;6.606;2022-10-31T13:30:14;16.10;99.90
52285;DHT22;38238;53.304;6.606;2022-10-31T13:32:51;16.10;99.90
52285;DHT22;38238;53.304;6.606;2022-10-31T13:35:53;16.10;99.90
52285;DHT22;38238;53.304;6.606;2022-10-31T13:41:22;16.00;99.90
52285;DHT22;38238;53.304;6.606;2022-10-31T13:44:13;15.90;99.90
52285;DHT22;38238;53.304;6.606;2022-10-31T13:46:42;15.90;99.90
52285;DHT22;38238;53.304;6.606;2022-10-31T13:54:38;15.80;99.90
52285;DHT22;38238;53.304;6.606;2022-10-31T13:57:35;15.80;99.90
52285;DHT22;38238;53.304;6.606;2022-10-31T14:02:49;15.80;99.90
52285;DHT22;38238;53.304;6.606;2022-10-31T14:05:33;15.80;99.90
52285;DHT22;38238;53.304;6.606;2022-10-31T14:08:03;15.90;99.90
52285;DHT22;38238;53.304;6.606;2022-10-31T14:10:33;16.00;99.90
52285;DHT22;38238;53.304;6.606;2022-10-31T14:13:19;16.00;99.90
52285;DHT22;38238;53.304;6.606;2022-10-31T14:16:03;16.10;99.90
52285;DHT22;38238;53.304;6.606;2022-10-31T14:18:34;16.00;99.90
52285;DHT22;38238;53.304;6.606;2022-10-31T14:21:01;16.00;99.90
52285;DHT22;38238;53.304;6.606;2022-10-31T14:23:39;15.90;99.90
52285;DHT22;38238;53.304;6.606;2022-10-31T14:31:37;15.80;99.90
52285;DHT22;38238;53.304;6.606;2022-10-31T14:50:57;15.50;99.90
52285;DHT22;38238;53.304;6.606;2022-10-31T14:53:36;15.50;99.90
52285;DHT22;38238;53.304;6.606;2022-10-31T14:56:09;15.50;99.90
52285;DHT22;38238;53.304;6.606;2022-10-31T14:58:37;15.50;99.90
52285;DHT22;38238;53.304;6.606;2022-10-31T15:01:04;15.50;99.90
52285;DHT22;38238;53.304;6.606;2022-10-31T15:03:31;15.50;99.90
52285;DHT22;38238;53.304;6.606;2022-10-31T15:06:16;15.40;99.90
52285;DHT22;38238;53.304;6.606;2022-10-31T15:08:51;15.40;99.90
52285;DHT22;38238;53.304;6.606;2022-10-31T15:11:18;15.40;99.90
52285;DHT22;38238;53.304;6.606;2022-10-31T15:13:55;15.40;99.90
52285;DHT22;38238;53.304;6.606;2022-10-31T15:16:34;15.30;99.90
52285;DHT22;38238;53.304;6.606;2022-10-31T15:19:10;15.30;99.90
52285;DHT22;38238;53.304;6.606;2022-10-31T15:21:41;15.20;99.90
52285;DHT22;38238;53.304;6.606;2022-10-31T15:24:12;15.20;99.90
52285;DHT22;38238;53.304;6.606;2022-10-31T15:26:45;15.20;99.90
52285;DHT22;38238;53.304;6.606;2022-10-31T15:29:14;15.10;99.90
52285;DHT22;38238;53.304;6.606;2022-10-31T15:32:20;15.10;99.90
52285;DHT22;38238;53.304;6.606;2022-10-31T15:34:46;15.00;99.90
52285;DHT22;38238;53.304;6.606;2022-10-31T15:37:13;14.90;99.90
52285;DHT22;38238;53.304;6.606;2022-10-31T15:39:40;14.90;99.90
52285;DHT22;38238;53.304;6.606;2022-10-31T15:42:23;14.80;99.90
52285;DHT22;38238;53.304;6.606;2022-10-31T15:44:56;14.70;99.90
52285;DHT22;38238;53.304;6.606;2022-10-31T15:47:24;14.70;99.90
52285;DHT22;38238;53.304;6.606;2022-10-31T15:49:57;14.70;99.90
52285;DHT22;38238;53.304;6.606;2022-10-31T15:52:30;14.60;99.90
52285;DHT22;38238;53.304;6.606;2022-10-31T15:55:03;14.60;99.90
52285;DHT22;38238;53.304;6.606;2022-10-31T15:57:32;14.50;99.90
52285;DHT22;38238;53.304;6.606;2022-10-31T15:59:58;14.50;99.90
52285;DHT22;38238;53.304;6.606;2022-10-31T16:02:26;14.50;99.90
52285;DHT22;38238;53.304;6.606;2022-10-31T16:04:53;14.40;99.90
52285;DHT22;38238;53.304;6.606;2022-10-31T16:07:21;14.40;99.90
52285;DHT22;38238;53.304;6.606;2022-10-31T16:12:18;14.40;99.90
52285;DHT22;38238;53.304;6.606;2022-10-31T16:14:45;14.30;99.90
52285;DHT22;38238;53.304;6.606;2022-10-31T16:17:13;14.30;99.90
52285;DHT22;38238;53.304;6.606;2022-10-31T16:19:56;14.30;99.90
52285;DHT22;38238;53.304;6.606;2022-10-31T16:22:36;14.30;99.90
52285;DHT22;38238;53.304;6.606;2022-10-31T16:25:15;14.30;99.90
52285;DHT22;38238;53.304;6.606;2022-10-31T16:27:48;14.30;99.90
52285;DHT22;38238;53.304;6.606;2022-10-31T16:30:41;14.20;99.90
52285;DHT22;38238;53.304;6.606;2022-10-31T16:33:33;14.20;99.90
52285;DHT22;38238;53.304;6.606;2022-10-31T16:38:46;14.20;99.90
52285;DHT22;38238;53.304;6.606;2022-10-31T16:41:14;14.20;99.90
52285;DHT22;38238;53.304;6.606;2022-10-31T16:43:43;14.20;99.90
52285;DHT22;38238;53.304;6.606;2022-10-31T16:46:14;14.20;99.90
52285;DHT22;38238;53.304;6.606;2022-10-31T16:48:40;14.10;99.90
52285;DHT22;38238;53.304;6.606;2022-10-31T16:51:07;14.10;99.90
52285;DHT22;38238;53.304;6.606;2022-10-31T16:53:33;14.10;99.90
52285;DHT22;38238;53.304;6.606;2022-10-31T16:55:59;14.10;99.90
52285;DHT22;38238;53.304;6.606;2022-10-31T16:58:33;14.10;99.90
52285;DHT22;38238;53.304;6.606;2022-10-31T17:01:00;14.10;99.90
52285;DHT22;38238;53.304;6.606;2022-10-31T17:03:26;14.10;99.90
52285;DHT22;38238;53.304;6.606;2022-10-31T17:05:52;14.10;99.90
52285;DHT22;38238;53.304;6.606;2022-10-31T17:08:21;14.10;99.90
52285;DHT22;38238;53.304;6.606;2022-10-31T17:10:47;14.10;99.90
52285;DHT22;38238;53.304;6.606;2022-10-31T17:13:22;14.10;99.90
52285;DHT22;38238;53.304;6.606;2022-10-31T17:15:51;14.10;99.90
52285;DHT22;38238;53.304;6.606;2022-10-31T17:18:18;14.00;99.90
52285;DHT22;38238;53.304;6.606;2022-10-31T17:20:44;14.00;99.90
52285;DHT22;38238;53.304;6.606;2022-10-31T17:23:12;14.00;99.90
52285;DHT22;38238;53.304;6.606;2022-10-31T17:25:38;14.00;99.90
52285;DHT22;38238;53.304;6.606;2022-10-31T17:28:04;14.00;99.90
52285;DHT22;38238;53.304;6.606;2022-10-31T17:30:31;14.00;99.90
52285;DHT22;38238;53.304;6.606;2022-10-31T17:32:57;14.00;99.90
52285;DHT22;38238;53.304;6.606;2022-10-31T17:35:23;14.00;99.90
52285;DHT22;38238;53.304;6.606;2022-10-31T17:37:49;14.00;99.90
52285;DHT22;38238;53.304;6.606;2022-10-31T17:40:20;14.00;99.90
52285;DHT22;38238;53.304;6.606;2022-10-31T17:42:54;14.00;99.90
52285;DHT22;38238;53.304;6.606;2022-10-31T17:45:22;14.00;99.90
52285;DHT22;38238;53.304;6.606;2022-10-31T17:47:49;14.00;99.90
52285;DHT22;38238;53.304;6.606;2022-10-31T17:50:17;14.00;99.90
52285;DHT22;38238;53.304;6.606;2022-10-31T17:52:43;14.00;99.90
52285;DHT22;38238;53.304;6.606;2022-10-31T17:55:09;14.00;99.90
52285;DHT22;38238;53.304;6.606;2022-10-31T17:57:35;14.00;99.90
52285;DHT22;38238;53.304;6.606;2022-10-31T18:00:03;14.00;99.90
52285;DHT22;38238;53.304;6.606;2022-10-31T18:02:33;14.00;99.90
52285;DHT22;38238;53.304;6.606;2022-10-31T18:05:00;14.00;99.90
52285;DHT22;38238;53.304;6.606;2022-10-31T18:07:27;13.90;99.90
52285;DHT22;38238;53.304;6.606;2022-10-31T18:09:56;14.00;99.90
52285;DHT22;38238;53.304;6.606;2022-10-31T18:12:21;13.90;99.90
52285;DHT22;38238;53.304;6.606;2022-10-31T18:14:47;13.90;99.90
52285;DHT22;38238;53.304;6.606;2022-10-31T18:17:13;13.90;99.90
52285;DHT22;38238;53.304;6.606;2022-10-31T18:19:39;13.90;99.90
52285;DHT22;38238;53.304;6.606;2022-10-31T18:22:07;13.90;99.90
52285;DHT22;38238;53.304;6.606;2022-10-31T18:24:33;13.90;99.90
52285;DHT22;38238;53.304;6.606;2022-10-31T18:27:01;13.90;99.90
52285;DHT22;38238;53.304;6.606;2022-10-31T18:29:27;13.90;99.90
52285;DHT22;38238;53.304;6.606;2022-10-31T18:31:53;13.90;99.90